Time;durP1;ratioP1;P1;durP2;ratioP2;P2;SDS_P1;SDS_P2;PMS_P1;PMS_P2;Temp;Humidity;BMP_temperature;BMP_pressure;BME280_temperature;BME280_humidity;BME280_pressure;Samples;Min_cycle;Max_cycle;Signal;HPM_P1;HPM_P2
2022/08/04 00:00:07;;;;;;;10.45;2.17;;;22.20;99.90;;;;;;5071539;28;20040;-74
2022/08/04 00:02:32;;;;;;;;;;;22.20;99.90;;;;;;5071867;28;20047;-74
2022/08/04 00:05:04;;;;;;;10.88;2.42;;;22.10;99.90;;;;;;5071479;28;19947;-73
2022/08/04 00:07:59;;;;;;;7.00;2.23;;;22.20;99.90;;;;;;5071770;28;20045;-73
2022/08/04 00:10:27;;;;;;;10.73;2.50;;;22.20;99.90;;;;;;5071508;28;20123;-73
2022/08/04 00:12:54;;;;;;;8.35;2.38;;;22.10;99.90;;;;;;5071782;28;20040;-73
2022/08/04 00:15:22;;;;;;;10.93;3.10;;;22.10;99.90;;;;;;5071627;28;20123;-73
2022/08/04 00:18:06;;;;;;;10.55;3.20;;;22.10;99.90;;;;;;5075267;28;20127;-73
2022/08/04 00:20:33;;;;;;;9.60;2.83;;;22.10;99.90;;;;;;5058526;28;20044;-73
2022/08/04 00:23:00;;;;;;;9.65;2.90;;;22.00;99.90;;;;;;5075143;28;20040;-73
2022/08/04 00:25:26;;;;;;;8.57;2.72;;;22.00;99.90;;;;;;5058470;28;20060;-73
2022/08/04 00:27:53;;;;;;;11.18;3.22;;;22.00;99.90;;;;;;5075397;28;20634;-73
2022/08/04 00:30:19;;;;;;;9.85;3.03;;;22.00;99.90;;;;;;5075323;28;20413;-73
2022/08/04 00:32:46;;;;;;;11.68;3.15;;;22.00;99.90;;;;;;5075064;28;20040;-73
2022/08/04 00:35:15;;;;;;;9.93;3.00;;;22.00;99.90;;;;;;5074938;28;20040;-73
2022/08/04 00:37:46;;;;;;;11.98;2.85;;;22.00;99.90;;;;;;5074958;28;20044;-73
2022/08/04 00:40:20;;;;;;;12.82;3.80;;;22.00;99.90;;;;;;5074962;28;20037;-73
2022/08/04 00:42:57;;;;;;;10.20;3.15;;;22.00;99.90;;;;;;5074965;28;20409;-73
2022/08/04 00:45:42;;;;;;;10.95;3.28;;;22.00;99.90;;;;;;5074746;28;20557;-74
2022/08/04 00:48:27;;;;;;;13.80;3.00;;;21.90;99.90;;;;;;5074866;28;20052;-74
2022/08/04 00:51:12;;;;;;;11.40;2.88;;;22.00;99.90;;;;;;5074745;28;20496;-74
2022/08/04 00:54:14;;;;;;;12.38;3.88;;;21.90;99.90;;;;;;5074986;28;20044;-74
2022/08/04 00:57:22;;;;;;;10.30;3.20;;;21.90;99.90;;;;;;5067520;28;20075;-74
2022/08/04 01:00:05;;;;;;;12.18;3.80;;;21.80;99.90;;;;;;5074617;28;20052;-74
2022/08/04 01:03:12;;;;;;;9.07;3.33;;;21.80;99.90;;;;;;5074505;28;20485;-74
2022/08/04 01:06:15;;;;;;;8.25;3.47;;;21.80;99.90;;;;;;5020353;28;20052;-74
2022/08/04 01:09:03;;;;;;;9.80;3.20;;;21.70;99.90;;;;;;5015638;28;20045;-73
2022/08/04 01:11:53;;;;;;;11.73;3.33;;;21.70;99.90;;;;;;5070104;28;20430;-73
2022/08/04 01:14:53;;;;;;;10.30;3.35;;;21.60;99.90;;;;;;5074574;28;20561;-73
2022/08/04 01:17:23;;;;;;;10.13;3.38;;;21.60;99.90;;;;;;5074333;28;20079;-74
2022/08/04 01:19:55;;;;;;;11.05;3.97;;;21.60;99.90;;;;;;5074069;28;20051;-74
2022/08/04 01:22:33;;;;;;;12.95;4.28;;;21.60;99.90;;;;;;5074157;28;20044;-74
2022/08/04 01:25:13;;;;;;;13.35;3.25;;;21.50;99.90;;;;;;5074047;28;21463;-73
2022/08/04 01:28:22;;;;;;;12.50;3.20;;;21.40;99.90;;;;;;5073323;28;20131;-74
2022/08/04 01:30:51;;;;;;;9.55;3.85;;;21.40;99.90;;;;;;5074345;28;20086;-74
2022/08/04 01:33:20;;;;;;;7.97;3.80;;;21.40;99.90;;;;;;5074038;28;20086;-74
2022/08/04 01:35:55;;;;;;;10.05;3.97;;;21.30;99.90;;;;;;5073826;28;20072;-73
2022/08/04 01:38:27;;;;;;;12.60;3.90;;;21.30;99.90;;;;;;5073952;28;20055;-73
2022/08/04 01:40:55;;;;;;;13.23;4.18;;;21.30;99.90;;;;;;5073817;28;20115;-73
2022/08/04 01:43:23;;;;;;;9.05;3.92;;;21.20;99.90;;;;;;5073631;28;20386;-73
2022/08/04 01:45:50;;;;;;;9.55;3.85;;;21.20;99.90;;;;;;5073658;28;20051;-73
2022/08/04 01:48:23;;;;;;;14.05;3.95;;;21.10;99.90;;;;;;5073710;28;20508;-73
2022/08/04 01:50:52;;;;;;;13.05;4.22;;;21.10;99.90;;;;;;5073654;28;20052;-73
2022/08/04 01:53:18;;;;;;;12.93;3.85;;;21.10;99.90;;;;;;5074881;28;20040;-73
2022/08/04 01:55:48;;;;;;;11.95;4.10;;;21.00;99.90;;;;;;5073475;28;20127;-73
2022/08/04 01:58:17;;;;;;;8.52;3.83;;;21.00;99.90;;;;;;5074990;28;20123;-73
2022/08/04 02:00:54;;;;;;;13.88;5.25;;;21.00;99.90;;;;;;5073409;28;20074;-73
2022/08/04 02:03:20;;;;;;;13.35;4.10;;;21.00;99.90;;;;;;5073342;28;20040;-73
2022/08/04 02:05:49;;;;;;;10.75;4.57;;;20.90;99.90;;;;;;5073230;28;20043;-73
2022/08/04 02:08:25;;;;;;;13.82;4.35;;;20.90;99.90;;;;;;5073525;28;20039;-73
2022/08/04 02:11:23;;;;;;;12.60;4.28;;;20.90;99.90;;;;;;5073256;28;20093;-73
2022/08/04 02:14:06;;;;;;;10.25;3.80;;;20.80;99.90;;;;;;5073457;28;20493;-73
2022/08/04 02:16:42;;;;;;;;;;;20.80;99.90;;;;;;5073521;28;20071;-73
2022/08/04 02:19:16;;;;;;;11.38;3.63;;;20.60;99.90;;;;;;5073058;28;19995;-73
2022/08/04 02:21:47;;;;;;;10.77;3.70;;;20.60;99.90;;;;;;5073290;28;20052;-73
2022/08/04 02:24:15;;;;;;;8.80;3.50;;;20.60;99.90;;;;;;5056223;28;20485;-73
2022/08/04 02:26:44;;;;;;;8.90;3.75;;;20.70;99.90;;;;;;5073138;28;20072;-73
2022/08/04 02:29:20;;;;;;;10.05;3.60;;;20.60;99.90;;;;;;5072838;28;20076;-73
2022/08/04 02:32:06;;;;;;;9.20;3.95;;;20.60;99.90;;;;;;5072854;28;20051;-73
2022/08/04 02:34:42;;;;;;;8.38;3.75;;;20.60;99.90;;;;;;5072763;28;20076;-73
2022/08/04 02:37:09;;;;;;;11.13;3.80;;;20.60;99.90;;;;;;5072993;28;20113;-73
2022/08/04 02:39:36;;;;;;;9.77;3.60;;;20.50;99.90;;;;;;5072447;28;20554;-73
2022/08/04 02:42:05;;;;;;;9.57;3.80;;;20.50;99.90;;;;;;5072579;28;20047;-73
2022/08/04 02:44:31;;;;;;;10.55;4.38;;;20.50;99.90;;;;;;5072508;28;20040;-73
2022/08/04 02:46:59;;;;;;;8.77;3.70;;;20.40;99.90;;;;;;5072427;28;20078;-73
2022/08/04 02:49:26;;;;;;;8.48;3.85;;;20.40;99.90;;;;;;5074087;28;20397;-73
2022/08/04 02:51:53;;;;;;;8.48;3.75;;;20.40;99.90;;;;;;5072423;28;20094;-73
2022/08/04 02:54:33;;;;;;;8.43;3.65;;;20.30;99.90;;;;;;5072372;28;20056;-73
2022/08/04 02:57:01;;;;;;;8.00;3.60;;;20.30;99.90;;;;;;5073841;28;20044;-73
2022/08/04 02:59:28;;;;;;;11.30;3.35;;;20.30;99.90;;;;;;5072293;28;20051;-73
2022/08/04 03:01:56;;;;;;;9.52;3.80;;;20.30;99.90;;;;;;5072203;28;20421;-73
2022/08/04 03:04:42;;;;;;;12.07;3.90;;;20.20;99.90;;;;;;5072260;28;20072;-73
2022/08/04 03:07:33;;;;;;;11.90;3.75;;;20.20;99.90;;;;;;5072220;28;20558;-73
2022/08/04 03:10:25;;;;;;;10.70;3.90;;;20.10;99.90;;;;;;5072123;28;20036;-73
2022/08/04 03:13:10;;;;;;;13.98;3.63;;;20.10;99.90;;;;;;5072472;28;20044;-73
2022/08/04 03:15:53;;;;;;;8.80;3.40;;;20.10;99.90;;;;;;5071848;28;20056;-73
2022/08/04 03:18:43;;;;;;;9.48;4.00;;;20.10;99.90;;;;;;5072057;28;20140;-73
2022/08/04 03:21:41;;;;;;;13.65;3.92;;;20.00;99.90;;;;;;5071944;28;20037;-73
2022/08/04 03:24:29;;;;;;;8.18;3.85;;;20.00;99.90;;;;;;5071939;28;20041;-73
2022/08/04 03:27:09;;;;;;;12.65;4.32;;;20.00;99.90;;;;;;5072120;28;20041;-73
2022/08/04 03:30:05;;;;;;;12.63;4.53;;;19.90;99.90;;;;;;5071927;28;20041;-73
2022/08/04 03:33:08;;;;;;;10.68;4.30;;;19.90;99.90;;;;;;5071922;28;20086;-73
2022/08/04 03:36:07;;;;;;;7.80;3.60;;;19.90;99.90;;;;;;5071848;28;20040;-73
2022/08/04 03:38:54;;;;;;;11.38;4.10;;;19.90;99.90;;;;;;5071822;28;20052;-73
2022/08/04 03:41:45;;;;;;;9.48;4.28;;;19.80;99.90;;;;;;5071849;28;20049;-73
2022/08/04 03:44:29;;;;;;;8.80;3.70;;;19.80;99.90;;;;;;5072534;28;20043;-73
2022/08/04 03:47:24;;;;;;;10.60;3.88;;;19.80;99.90;;;;;;5071631;28;20036;-73
2022/08/04 03:50:30;;;;;;;9.75;3.83;;;19.80;99.90;;;;;;5071672;28;20075;-73
2022/08/04 03:53:18;;;;;;;13.50;4.00;;;19.90;99.90;;;;;;5078373;28;20054;-73
2022/08/04 03:55:57;;;;;;;8.10;3.95;;;19.90;99.90;;;;;;5058538;28;20102;-73
2022/08/04 03:59:07;;;;;;;8.85;4.15;;;19.80;99.90;;;;;;5078298;28;20489;-73
2022/08/04 04:01:48;;;;;;;13.13;4.15;;;19.70;99.90;;;;;;5040861;28;20040;-73
2022/08/04 04:04:37;;;;;;;9.10;3.75;;;19.80;99.90;;;;;;5040606;28;20387;-73
2022/08/04 04:07:40;;;;;;;10.15;4.10;;;19.80;99.90;;;;;;5040718;28;20049;-73
2022/08/04 04:10:36;;;;;;;6.38;3.75;;;19.80;99.90;;;;;;5040603;28;20033;-73
2022/08/04 04:13:19;;;;;;;12.13;4.20;;;19.80;99.90;;;;;;5040660;28;20140;-73
2022/08/04 04:16:12;;;;;;;13.85;4.18;;;19.80;99.90;;;;;;5040490;28;20083;-73
2022/08/04 04:18:56;;;;;;;10.23;4.55;;;19.80;99.90;;;;;;5040524;28;20140;-73
2022/08/04 04:21:40;;;;;;;11.07;4.10;;;19.80;99.90;;;;;;5040420;28;20136;-73
2022/08/04 04:24:28;;;;;;;8.30;4.25;;;19.80;99.90;;;;;;5040398;28;20044;-73
2022/08/04 04:26:58;;;;;;;9.35;4.05;;;19.80;99.90;;;;;;5040863;28;20633;-73
2022/08/04 04:29:42;;;;;;;9.85;4.78;;;19.70;99.90;;;;;;5040419;28;20121;-73
2022/08/04 04:32:26;;;;;;;11.68;4.68;;;19.70;99.90;;;;;;5050289;28;20076;-73
2022/08/04 04:35:18;;;;;;;11.48;4.22;;;19.70;99.90;;;;;;5078196;28;20036;-73
2022/08/04 04:38:02;;;;;;;8.90;4.23;;;19.70;99.90;;;;;;5077951;28;20040;-73
2022/08/04 04:40:51;;;;;;;7.97;3.60;;;19.70;99.90;;;;;;5078247;28;20040;-73
2022/08/04 04:43:35;;;;;;;9.75;4.22;;;19.70;99.90;;;;;;5078011;28;20040;-73
2022/08/04 04:46:23;;;;;;;10.65;4.88;;;19.70;99.90;;;;;;5078071;28;20455;-73
2022/08/04 04:49:15;;;;;;;11.05;4.32;;;19.80;99.90;;;;;;5078056;28;20562;-73
2022/08/04 04:51:59;;;;;;;10.02;4.32;;;19.80;99.90;;;;;;5077814;28;20041;-73
2022/08/04 04:54:33;;;;;;;6.70;4.10;;;19.70;99.90;;;;;;5077809;28;20040;-74
2022/08/04 04:57:14;;;;;;;9.50;4.72;;;19.80;99.90;;;;;;5077752;28;20786;-73
2022/08/04 04:59:52;;;;;;;11.13;4.88;;;19.80;99.90;;;;;;5077799;28;20101;-73
2022/08/04 05:02:37;;;;;;;11.13;5.03;;;19.80;99.90;;;;;;5076791;28;20048;-73
2022/08/04 05:05:14;;;;;;;10.18;4.95;;;19.80;99.90;;;;;;5074431;28;20445;-73
2022/08/04 05:08:05;;;;;;;11.13;5.25;;;19.90;99.90;;;;;;5058053;28;20048;-73
2022/08/04 05:10:38;;;;;;;10.02;5.47;;;19.90;99.90;;;;;;5074725;28;20051;-73
2022/08/04 05:13:41;;;;;;;10.95;6.05;;;20.00;99.90;;;;;;5074656;28;20049;-73
2022/08/04 05:16:28;;;;;;;12.07;5.57;;;20.10;99.90;;;;;;5074362;28;20055;-73
2022/08/04 05:19:11;;;;;;;12.52;5.88;;;20.10;99.90;;;;;;5074825;28;20048;-73
2022/08/04 05:21:45;;;;;;;13.50;5.95;;;20.20;99.90;;;;;;5074161;28;20055;-73
2022/08/04 05:24:14;;;;;;;11.80;6.10;;;20.30;99.90;;;;;;5074144;28;20043;-73
2022/08/04 05:26:54;;;;;;;10.93;5.57;;;20.30;99.90;;;;;;5074105;28;20048;-74
2022/08/04 05:29:41;;;;;;;16.50;5.82;;;20.40;99.90;;;;;;5074540;28;20123;-74
2022/08/04 05:32:11;;;;;;;10.77;6.05;;;20.50;99.90;;;;;;5074119;28;20044;-73
2022/08/04 05:34:54;;;;;;;14.55;5.72;;;20.50;99.90;;;;;;5073996;28;20519;-73
2022/08/04 05:37:22;;;;;;;10.00;6.15;;;20.60;99.90;;;;;;5074237;28;20485;-74
2022/08/04 05:40:09;;;;;;;16.60;5.32;;;20.60;99.90;;;;;;5074153;28;20501;-74
2022/08/04 05:42:38;;;;;;;8.80;5.55;;;20.70;99.90;;;;;;5073847;28;20402;-73
2022/08/04 05:45:06;;;;;;;13.60;6.10;;;20.70;99.90;;;;;;5073730;28;20036;-73
2022/08/04 05:47:33;;;;;;;8.95;5.63;;;20.80;99.90;;;;;;5057004;28;20447;-73
2022/08/04 05:50:01;;;;;;;13.27;6.35;;;20.90;99.90;;;;;;5073671;28;20043;-73
2022/08/04 05:52:27;;;;;;;14.48;6.43;;;21.00;99.90;;;;;;5073902;28;20049;-73
2022/08/04 05:54:55;;;;;;;12.52;6.50;;;21.10;99.90;;;;;;5073851;28;20119;-72
2022/08/04 05:57:21;;;;;;;12.27;6.72;;;21.10;99.90;;;;;;5073505;28;20087;-72
2022/08/04 05:59:49;;;;;;;11.80;6.60;;;21.20;99.90;;;;;;5073494;28;20045;-72
2022/08/04 06:02:18;;;;;;;14.57;7.10;;;21.30;99.90;;;;;;5073668;28;20063;-72
2022/08/04 06:04:48;;;;;;;11.73;6.82;;;21.30;99.90;;;;;;5073559;28;20075;-72
2022/08/04 06:07:14;;;;;;;12.25;6.38;;;21.40;99.90;;;;;;5074138;28;20397;-72
2022/08/04 06:09:40;;;;;;;14.55;7.18;;;21.40;99.90;;;;;;5073534;28;20110;-73
2022/08/04 06:12:12;;;;;;;17.52;6.95;;;21.60;99.90;;;;;;5073245;28;20489;-72
2022/08/04 06:14:41;;;;;;;12.68;7.38;;;21.60;99.90;;;;;;5072719;28;20072;-72
2022/08/04 06:17:10;;;;;;;13.38;7.18;;;21.80;99.90;;;;;;5073151;28;20033;-72
2022/08/04 06:19:38;;;;;;;15.57;7.15;;;21.90;99.90;;;;;;5073187;28;20071;-72
2022/08/04 06:22:06;;;;;;;12.18;6.55;;;22.00;99.90;;;;;;5073373;28;20188;-72
2022/08/04 06:24:36;;;;;;;12.77;6.90;;;22.10;99.90;;;;;;5073302;28;20040;-73
2022/08/04 06:27:03;;;;;;;11.95;6.43;;;22.20;99.90;;;;;;5072920;28;20489;-73
2022/08/04 06:29:40;;;;;;;14.43;6.28;;;22.20;99.90;;;;;;5073151;28;20042;-74
2022/08/04 06:32:12;;;;;;;9.77;7.03;;;22.40;99.90;;;;;;5073211;28;20169;-73
2022/08/04 06:34:39;;;;;;;12.35;6.10;;;22.50;99.90;;;;;;5072939;28;20111;-73
2022/08/04 06:37:06;;;;;;;15.60;6.72;;;22.60;99.90;;;;;;5072737;28;20041;-73
2022/08/04 06:39:33;;;;;;;15.30;5.70;;;22.70;99.90;;;;;;5072766;28;20069;-73
2022/08/04 06:42:00;;;;;;;12.40;5.32;;;22.70;99.90;;;;;;5072684;28;20041;-73
2022/08/04 06:44:27;;;;;;;7.97;5.15;;;22.80;99.90;;;;;;5072550;28;20072;-72
2022/08/04 06:46:54;;;;;;;9.88;5.05;;;23.00;99.90;;;;;;5072502;28;20497;-73
2022/08/04 06:49:21;;;;;;;10.10;5.43;;;23.10;99.90;;;;;;5072649;28;20082;-73
2022/08/04 06:51:48;;;;;;;12.05;4.72;;;23.20;99.90;;;;;;5072565;28;20507;-73
2022/08/04 06:54:14;;;;;;;11.15;4.63;;;23.30;99.90;;;;;;5072492;28;20040;-73
2022/08/04 06:56:41;;;;;;;14.50;5.03;;;23.40;99.90;;;;;;5072430;28;20087;-73
2022/08/04 06:59:09;;;;;;;11.18;4.60;;;23.50;99.90;;;;;;5072506;28;20094;-74
2022/08/04 07:01:36;;;;;;;9.75;5.10;;;23.60;99.90;;;;;;5072461;28;20048;-74
2022/08/04 07:04:03;;;;;;;9.05;4.13;;;23.70;99.90;;;;;;5072199;28;20119;-74
2022/08/04 07:06:29;;;;;;;10.43;4.45;;;23.80;99.90;;;;;;5072184;28;20081;-73
2022/08/04 07:08:55;;;;;;;9.88;4.30;;;23.90;99.90;;;;;;5073542;28;20448;-74
2022/08/04 07:11:22;;;;;;;13.45;4.40;;;24.00;99.90;;;;;;5055559;28;20033;-74
2022/08/04 07:13:49;;;;;;;10.80;4.35;;;24.20;99.90;;;;;;5073389;28;20170;-72
2022/08/04 07:16:17;;;;;;;13.30;4.20;;;24.30;99.90;;;;;;5072041;28;20053;-75
2022/08/04 07:18:43;;;;;;;11.20;4.25;;;24.40;99.90;;;;;;5072046;28;20101;-73
2022/08/04 07:21:10;;;;;;;10.55;4.40;;;24.50;99.90;;;;;;5072009;28;20052;-74
2022/08/04 07:23:35;;;;;;;6.70;3.10;;;24.60;99.90;;;;;;5072050;28;20041;-74
2022/08/04 07:26:01;;;;;;;9.80;3.78;;;24.70;99.90;;;;;;5071166;28;20508;-74
2022/08/04 07:28:29;;;;;;;10.90;3.50;;;24.70;99.90;;;;;;5072232;28;20489;-74
2022/08/04 07:30:56;;;;;;;8.25;3.33;;;24.80;99.90;;;;;;5071927;28;20066;-74
2022/08/04 07:33:23;;;;;;;10.27;3.28;;;24.90;99.90;;;;;;5074316;28;20049;-74
2022/08/04 07:35:51;;;;;;;10.02;3.42;;;25.10;99.90;;;;;;5055177;28;20044;-74
2022/08/04 07:38:17;;;;;;;10.32;2.75;;;25.20;99.90;;;;;;5071874;28;20089;-74
2022/08/04 07:40:44;;;;;;;11.50;3.45;;;25.20;99.90;;;;;;5055185;28;20036;-74
2022/08/04 07:43:10;;;;;;;12.15;3.97;;;25.30;99.90;;;;;;5072994;28;20037;-74
2022/08/04 07:45:36;;;;;;;10.77;2.95;;;25.50;99.90;;;;;;5071725;28;20055;-74
2022/08/04 07:48:04;;;;;;;11.20;2.60;;;25.70;99.90;;;;;;5071703;28;20079;-74
2022/08/04 07:50:30;;;;;;;9.75;3.10;;;25.80;99.90;;;;;;5055043;28;20120;-74
2022/08/04 07:52:57;;;;;;;13.77;3.08;;;26.00;99.90;;;;;;5071777;28;20059;-74
2022/08/04 07:55:23;;;;;;;12.65;2.95;;;26.10;99.90;;;;;;5071598;28;20413;-74
2022/08/04 07:57:49;;;;;;;13.65;3.05;;;26.20;99.90;;;;;;5071745;28;20090;-74
2022/08/04 08:00:14;;;;;;;11.13;2.65;;;26.40;99.90;;;;;;5071942;28;20086;-74
2022/08/04 08:02:41;;;;;;;10.43;2.67;;;26.50;99.90;;;;;;5071583;28;20044;-74
2022/08/04 08:05:11;;;;;;;10.00;2.42;;;26.60;99.90;;;;;;5071533;28;20234;-74
2022/08/04 08:07:37;;;;;;;14.23;2.85;;;26.70;99.90;;;;;;5071625;28;20489;-74
2022/08/04 08:10:03;;;;;;;8.32;2.80;;;26.80;99.90;;;;;;5071815;28;20516;-74
2022/08/04 08:12:31;;;;;;;7.82;2.40;;;26.90;99.90;;;;;;5073029;28;20037;-74
2022/08/04 08:14:57;;;;;;;8.10;2.85;;;27.00;99.90;;;;;;5071719;28;20489;-74
2022/08/04 08:17:23;;;;;;;11.43;2.78;;;27.20;99.90;;;;;;5072800;28;20052;-74
2022/08/04 08:19:48;;;;;;;16.35;2.50;;;27.30;99.90;;;;;;5071332;28;20049;-74
2022/08/04 08:22:14;;;;;;;8.13;2.72;;;27.50;99.90;;;;;;5071628;28;20043;-74
2022/08/04 08:24:39;;;;;;;13.02;2.58;;;27.50;99.90;;;;;;5071420;28;20502;-74
2022/08/04 08:27:06;;;;;;;9.57;2.63;;;27.50;99.90;;;;;;5071415;28;20040;-74
2022/08/04 08:29:33;;;;;;;10.93;3.35;;;27.60;99.90;;;;;;5071364;28;20033;-74
2022/08/04 08:32:01;;;;;;;10.18;2.60;;;27.70;99.90;;;;;;5071334;28;20040;-74
2022/08/04 08:34:28;;;;;;;12.18;2.58;;;27.70;99.90;;;;;;5071588;28;20095;-74
2022/08/04 08:37:06;;;;;;;7.70;2.58;;;27.70;99.90;;;;;;5072122;28;20033;-74
2022/08/04 08:39:44;;;;;;;9.45;2.22;;;27.70;99.90;;;;;;5058648;28;20127;-74
2022/08/04 08:42:29;;;;;;;8.93;2.90;;;27.70;99.90;;;;;;5075087;28;20452;-74
2022/08/04 08:45:32;;;;;;;9.85;2.80;;;27.80;99.90;;;;;;5074890;28;20056;-74
2022/08/04 08:48:07;;;;;;;12.13;2.50;;;27.80;99.90;;;;;;5075152;28;20072;-74
2022/08/04 08:51:01;;;;;;;8.43;2.60;;;27.90;99.90;;;;;;5074842;28;20124;-74
2022/08/04 08:53:55;;;;;;;13.60;2.50;;;28.00;99.90;;;;;;5075134;28;20045;-74
2022/08/04 08:56:45;;;;;;;9.00;2.90;;;28.00;99.90;;;;;;5074698;28;20083;-74
2022/08/04 08:59:35;;;;;;;8.10;2.40;;;28.20;99.90;;;;;;5075041;28;20102;-74
2022/08/04 09:02:31;;;;;;;9.63;2.70;;;28.20;99.90;;;;;;5057981;28;20044;-74
2022/08/04 09:05:17;;;;;;;6.97;2.50;;;28.40;99.90;;;;;;5074836;28;20041;-74
2022/08/04 09:08:15;;;;;;;10.18;2.92;;;28.50;99.90;;;;;;5074838;28;20066;-74
2022/08/04 09:10:46;;;;;;;12.18;2.67;;;28.60;99.90;;;;;;5039653;28;20052;-74
2022/08/04 09:13:51;;;;;;;10.65;2.85;;;28.70;99.90;;;;;;5074701;28;20048;-74
2022/08/04 09:16:41;;;;;;;15.52;3.38;;;28.90;99.90;;;;;;5036888;28;20084;-74
2022/08/04 09:19:32;;;;;;;7.60;2.75;;;29.00;99.90;;;;;;5073934;28;20106;-75
2022/08/04 09:22:02;;;;;;;9.63;3.15;;;29.10;99.90;;;;;;5074609;28;20079;-75
2022/08/04 09:24:49;;;;;;;9.95;2.80;;;29.20;99.90;;;;;;5074172;28;20044;-75
2022/08/04 09:27:21;;;;;;;11.18;3.40;;;29.30;99.90;;;;;;5074187;28;20051;-75
2022/08/04 09:30:19;;;;;;;8.88;2.88;;;29.50;99.60;;;;;;5074247;28;20036;-75
2022/08/04 09:33:19;;;;;;;7.57;2.90;;;29.50;99.90;;;;;;5070953;28;20128;-75
2022/08/04 09:36:03;;;;;;;9.63;2.85;;;29.70;99.90;;;;;;5068616;28;20524;-75
2022/08/04 09:39:27;;;;;;;11.23;3.25;;;29.80;99.90;;;;;;5074044;28;20044;-75
2022/08/04 09:42:24;;;;;;;9.45;2.88;;;30.10;99.90;;;;;;5043286;28;20519;-75
2022/08/04 09:45:06;;;;;;;11.60;3.70;;;30.00;98.80;;;;;;5074066;28;20105;-75
2022/08/04 09:47:51;;;;;;;10.60;3.30;;;29.90;95.40;;;;;;5074174;28;20097;-74
2022/08/04 09:50:40;;;;;;;8.65;3.15;;;29.80;95.70;;;;;;5073023;28;20093;-74
2022/08/04 09:53:29;;;;;;;8.52;2.85;;;29.70;95.70;;;;;;5073729;28;20032;-74
2022/08/04 09:56:01;;;;;;;12.07;3.05;;;29.50;97.90;;;;;;5073613;28;20040;-74
2022/08/04 09:58:53;;;;;;;7.70;3.10;;;29.40;98.20;;;;;;5073834;28;20067;-74
2022/08/04 10:01:23;;;;;;;11.65;3.13;;;29.40;96.50;;;;;;5055128;28;20052;-74
2022/08/04 10:03:51;;;;;;;11.45;3.60;;;29.40;96.10;;;;;;5073482;28;20041;-73
2022/08/04 10:06:39;;;;;;;9.00;3.65;;;29.50;98.20;;;;;;5073387;28;20048;-73
2022/08/04 10:09:21;;;;;;;8.70;3.85;;;29.60;95.70;;;;;;5073389;28;20041;-73
2022/08/04 10:12:01;;;;;;;8.13;2.58;;;29.50;96.40;;;;;;5073685;28;20059;-73
2022/08/04 10:14:32;;;;;;;9.20;3.30;;;29.50;98.70;;;;;;5073283;28;20049;-73
2022/08/04 10:17:29;;;;;;;10.88;3.35;;;29.40;98.00;;;;;;5073473;28;20040;-73
2022/08/04 10:20:18;;;;;;;9.00;2.70;;;29.50;99.30;;;;;;5073019;28;20386;-75
2022/08/04 10:23:15;;;;;;;8.55;2.75;;;29.70;98.40;;;;;;5054658;28;20049;-75
2022/08/04 10:26:05;;;;;;;6.07;2.50;;;29.80;96.50;;;;;;5051091;28;20052;-75
2022/08/04 10:28:40;;;;;;;5.97;2.60;;;30.00;95.70;;;;;;5072973;28;20501;-74
2022/08/04 10:31:09;;;;;;;7.43;2.35;;;30.00;94.40;;;;;;5073249;28;20102;-74
2022/08/04 10:33:48;;;;;;;8.35;1.88;;;30.00;92.20;;;;;;5073212;28;20071;-74
2022/08/04 10:36:18;;;;;;;7.70;1.88;;;29.80;87.70;;;;;;5073037;28;20044;-74
2022/08/04 10:39:04;;;;;;;7.63;1.85;;;29.70;89.30;;;;;;5073031;28;20190;-75
2022/08/04 10:41:59;;;;;;;9.88;1.70;;;29.70;90.10;;;;;;5072801;28;20051;-75
2022/08/04 10:44:47;;;;;;;7.28;1.80;;;29.50;88.40;;;;;;5072899;28;20040;-75
2022/08/04 10:47:18;;;;;;;5.38;2.13;;;29.50;88.90;;;;;;5072686;28;20553;-75
2022/08/04 10:49:47;;;;;;;7.32;2.38;;;29.50;89.50;;;;;;5072630;28;20052;-74
2022/08/04 10:52:33;;;;;;;11.10;2.50;;;29.60;90.20;;;;;;5072528;28;20489;-74
2022/08/04 10:55:02;;;;;;;7.00;2.00;;;29.60;91.20;;;;;;5073011;28;20033;-74
2022/08/04 10:57:47;;;;;;;6.78;2.20;;;29.60;92.20;;;;;;5072426;28;20041;-75
2022/08/04 11:00:20;;;;;;;8.10;1.65;;;29.60;92.00;;;;;;5072523;28;20048;-75
2022/08/04 11:02:57;;;;;;;9.52;2.10;;;29.60;92.70;;;;;;5072333;28;20047;-75
2022/08/04 11:05:59;;;;;;;11.45;2.03;;;29.60;92.10;;;;;;5072247;28;20045;-75
2022/08/04 11:08:37;;;;;;;8.93;1.67;;;29.70;92.20;;;;;;5035255;28;20120;-75
2022/08/04 11:11:08;;;;;;;8.30;1.98;;;29.90;92.70;;;;;;5067422;28;20045;-75
2022/08/04 11:13:43;;;;;;;8.90;1.90;;;30.10;91.60;;;;;;5055551;28;20079;-75
2022/08/04 11:16:25;;;;;;;12.18;2.20;;;30.20;88.30;;;;;;5055455;28;20076;-74
2022/08/04 11:19:19;;;;;;;4.63;1.50;;;30.00;85.50;;;;;;5072349;28;20086;-74
2022/08/04 11:21:57;;;;;;;9.07;1.60;;;30.00;88.20;;;;;;5055429;28;20040;-74
2022/08/04 11:25:02;;;;;;;6.28;2.00;;;30.00;89.80;;;;;;5072291;28;20098;-74
2022/08/04 11:27:32;;;;;;;8.93;1.90;;;29.90;88.90;;;;;;5072417;28;20041;-74
2022/08/04 11:30:05;;;;;;;6.57;1.55;;;29.70;90.40;;;;;;5072481;28;20512;-73
2022/08/04 11:32:52;;;;;;;9.80;1.83;;;29.60;92.20;;;;;;5071996;28;20543;-73
2022/08/04 11:35:37;;;;;;;6.95;1.95;;;29.50;92.40;;;;;;5072237;28;20048;-73
2022/08/04 11:38:06;;;;;;;7.57;1.60;;;29.50;93.80;;;;;;5072133;28;20075;-73
2022/08/04 11:40:42;;;;;;;9.68;2.17;;;29.40;93.30;;;;;;5055214;28;20124;-73
2022/08/04 11:43:25;;;;;;;6.95;1.98;;;29.30;93.80;;;;;;5071852;28;20049;-73
2022/08/04 11:45:59;;;;;;;8.07;1.60;;;29.20;95.30;;;;;;5072037;28;20056;-73
2022/08/04 11:49:04;;;;;;;5.25;1.33;;;29.00;95.10;;;;;;5071847;28;20044;-73
2022/08/04 11:51:32;;;;;;;5.70;1.10;;;28.90;97.80;;;;;;5060184;28;20045;-73
2022/08/04 11:53:59;;;;;;;6.80;1.25;;;28.70;97.20;;;;;;5071749;28;20049;-73
2022/08/04 11:56:26;;;;;;;6.15;1.10;;;28.60;98.40;;;;;;5071920;28;20048;-73
2022/08/04 11:58:52;;;;;;;9.25;1.58;;;28.50;98.30;;;;;;5071617;28;20078;-73
2022/08/04 12:01:26;;;;;;;5.60;1.15;;;28.40;98.00;;;;;;5071659;28;20048;-73
2022/08/04 12:04:10;;;;;;;8.63;1.15;;;28.30;97.10;;;;;;5054748;28;20044;-73
2022/08/04 12:06:47;;;;;;;5.20;1.15;;;28.20;96.50;;;;;;5071656;28;20132;-73
2022/08/04 12:09:43;;;;;;;8.60;1.10;;;28.00;95.80;;;;;;5071647;28;20507;-73
2022/08/04 12:12:42;;;;;;;3.03;1.13;;;27.80;98.10;;;;;;5074560;28;20040;-73
2022/08/04 12:15:31;;;;;;;5.60;1.48;;;27.70;97.00;;;;;;5075988;28;20115;-73
2022/08/04 12:18:16;;;;;;;5.63;1.10;;;27.60;98.30;;;;;;5076371;28;20068;-73
2022/08/04 12:20:47;;;;;;;3.90;1.10;;;27.50;98.00;;;;;;5076716;28;20036;-73
2022/08/04 12:23:23;;;;;;;4.05;1.33;;;27.30;98.80;;;;;;5058800;28;20036;-73
2022/08/04 12:25:54;;;;;;;5.10;1.20;;;27.20;98.60;;;;;;5075424;28;20061;-73
2022/08/04 12:28:35;;;;;;;7.00;1.00;;;27.10;99.70;;;;;;5058781;28;20040;-74
2022/08/04 12:31:30;;;;;;;3.78;1.20;;;27.00;99.60;;;;;;5075682;28;20214;-73
2022/08/04 12:34:01;;;;;;;3.60;1.30;;;27.00;99.80;;;;;;5075239;28;20040;-73
2022/08/04 12:36:46;;;;;;;3.90;1.00;;;26.80;99.90;;;;;;5075016;28;20097;-73
2022/08/04 12:39:20;;;;;;;3.00;1.15;;;26.70;99.90;;;;;;5075108;28;20047;-72
2022/08/04 12:42:10;;;;;;;4.93;1.20;;;26.60;99.90;;;;;;5075053;28;20052;-73
2022/08/04 12:44:38;;;;;;;5.72;1.10;;;26.60;99.90;;;;;;5074915;28;20162;-72
2022/08/04 12:47:08;;;;;;;5.70;1.10;;;26.50;99.90;;;;;;5075076;28;20045;-73
2022/08/04 12:49:36;;;;;;;4.07;1.02;;;26.50;99.90;;;;;;5074840;28;20485;-73
2022/08/04 12:52:06;;;;;;;3.03;0.90;;;26.50;99.90;;;;;;5074796;28;20052;-73
2022/08/04 12:54:34;;;;;;;4.43;0.90;;;26.60;99.90;;;;;;5074752;28;20053;-73
2022/08/04 12:57:00;;;;;;;4.40;0.90;;;26.60;99.90;;;;;;5074620;28;20040;-73
2022/08/04 12:59:26;;;;;;;3.55;1.10;;;26.70;99.90;;;;;;5075879;28;20466;-72
2022/08/04 13:01:55;;;;;;;4.38;1.20;;;26.70;99.90;;;;;;5074620;28;20044;-73
2022/08/04 13:04:25;;;;;;;2.83;0.80;;;26.80;99.90;;;;;;5074484;28;20052;-73
2022/08/04 13:06:58;;;;;;;3.35;1.02;;;26.90;99.90;;;;;;5075564;28;20060;-73
2022/08/04 13:09:30;;;;;;;2.97;1.00;;;27.00;99.90;;;;;;5074555;28;20045;-73
2022/08/04 13:12:00;;;;;;;4.30;0.82;;;27.10;99.90;;;;;;5074536;28;20524;-73
2022/08/04 13:14:32;;;;;;;3.63;0.80;;;27.20;99.20;;;;;;5074472;28;20048;-73
2022/08/04 13:17:01;;;;;;;2.22;0.60;;;27.40;98.10;;;;;;5074847;28;20139;-73
2022/08/04 13:19:28;;;;;;;4.68;0.82;;;27.60;97.10;;;;;;5074294;28;20404;-73
2022/08/04 13:21:56;;;;;;;2.75;0.70;;;27.70;94.40;;;;;;5074641;28;20043;-72
2022/08/04 13:24:23;;;;;;;3.70;0.85;;;27.80;94.10;;;;;;5072887;28;20048;-73
2022/08/04 13:26:57;;;;;;;6.28;1.27;;;28.10;94.30;;;;;;5074240;28;20132;-73
2022/08/04 13:29:29;;;;;;;4.38;1.00;;;28.40;90.30;;;;;;5074407;28;20044;-72
2022/08/04 13:31:55;;;;;;;3.78;1.20;;;28.50;87.80;;;;;;5057480;28;20045;-73
2022/08/04 13:34:21;;;;;;;3.65;0.63;;;28.60;86.30;;;;;;5074107;28;20101;-73